sensor_id;sensor_type;location;lat;lon;timestamp;P1;durP1;ratioP1;P2;durP2;ratioP2
74401;SDS011;62837;51.082;13.744;2023-02-22T00:02:49;4.60;;;2.70;;
74401;SDS011;62837;51.082;13.744;2023-02-22T00:05:26;5.10;;;2.60;;
74401;SDS011;62837;51.082;13.744;2023-02-22T00:07:58;5.70;;;2.60;;
74401;SDS011;62837;51.082;13.744;2023-02-22T00:10:29;6.30;;;3.30;;
74401;SDS011;62837;51.082;13.744;2023-02-22T00:12:59;5.50;;;2.90;;
74401;SDS011;62837;51.082;13.744;2023-02-22T00:15:30;4.90;;;2.70;;
74401;SDS011;62837;51.082;13.744;2023-02-22T00:18:01;5.20;;;3.00;;
74401;SDS011;62837;51.082;13.744;2023-02-22T00:20:33;4.50;;;3.00;;
74401;SDS011;62837;51.082;13.744;2023-02-22T00:23:08;4.90;;;3.10;;
74401;SDS011;62837;51.082;13.744;2023-02-22T00:25:46;5.60;;;2.60;;
74401;SDS011;62837;51.082;13.744;2023-02-22T00:28:18;3.80;;;2.10;;
74401;SDS011;62837;51.082;13.744;2023-02-22T00:30:51;6.40;;;2.40;;
74401;SDS011;62837;51.082;13.744;2023-02-22T00:33:22;5.90;;;3.00;;
74401;SDS011;62837;51.082;13.744;2023-02-22T00:35:53;5.40;;;2.90;;
74401;SDS011;62837;51.082;13.744;2023-02-22T00:38:24;5.80;;;2.90;;
74401;SDS011;62837;51.082;13.744;2023-02-22T00:40:55;5.10;;;3.00;;
74401;SDS011;62837;51.082;13.744;2023-02-22T00:43:26;4.80;;;3.40;;
74401;SDS011;62837;51.082;13.744;2023-02-22T00:45:56;6.50;;;3.20;;
74401;SDS011;62837;51.082;13.744;2023-02-22T00:48:27;5.50;;;2.30;;
74401;SDS011;62837;51.082;13.744;2023-02-22T00:50:59;4.30;;;2.50;;
74401;SDS011;62837;51.082;13.744;2023-02-22T00:53:29;4.90;;;3.00;;
74401;SDS011;62837;51.082;13.744;2023-02-22T00:56:00;4.20;;;2.50;;
74401;SDS011;62837;51.082;13.744;2023-02-22T00:58:32;6.00;;;2.70;;
74401;SDS011;62837;51.082;13.744;2023-02-22T01:01:02;4.70;;;3.10;;
74401;SDS011;62837;51.082;13.744;2023-02-22T01:03:33;7.20;;;3.30;;
74401;SDS011;62837;51.082;13.744;2023-02-22T01:06:08;4.80;;;3.10;;
74401;SDS011;62837;51.082;13.744;2023-02-22T01:08:39;4.40;;;2.60;;
74401;SDS011;62837;51.082;13.744;2023-02-22T01:11:14;8.80;;;3.20;;
74401;SDS011;62837;51.082;13.744;2023-02-22T01:13:45;5.30;;;3.30;;
74401;SDS011;62837;51.082;13.744;2023-02-22T01:16:16;5.70;;;2.80;;
74401;SDS011;62837;51.082;13.744;2023-02-22T01:18:47;4.50;;;2.20;;
74401;SDS011;62837;51.082;13.744;2023-02-22T01:21:18;6.40;;;2.50;;
74401;SDS011;62837;51.082;13.744;2023-02-22T01:23:48;4.40;;;2.40;;
74401;SDS011;62837;51.082;13.744;2023-02-22T01:26:19;6.30;;;2.50;;
74401;SDS011;62837;51.082;13.744;2023-02-22T01:28:50;7.00;;;3.40;;
74401;SDS011;62837;51.082;13.744;2023-02-22T01:31:20;6.50;;;3.10;;
74401;SDS011;62837;51.082;13.744;2023-02-22T01:33:51;4.50;;;2.90;;
74401;SDS011;62837;51.082;13.744;2023-02-22T01:36:22;8.70;;;3.30;;
74401;SDS011;62837;51.082;13.744;2023-02-22T01:38:53;5.50;;;2.80;;
74401;SDS011;62837;51.082;13.744;2023-02-22T01:41:24;5.70;;;3.00;;
74401;SDS011;62837;51.082;13.744;2023-02-22T01:43:55;4.50;;;2.90;;
74401;SDS011;62837;51.082;13.744;2023-02-22T01:46:26;5.60;;;2.90;;
74401;SDS011;62837;51.082;13.744;2023-02-22T01:48:59;7.20;;;2.90;;
74401;SDS011;62837;51.082;13.744;2023-02-22T01:51:35;5.10;;;3.60;;
74401;SDS011;62837;51.082;13.744;2023-02-22T01:54:08;4.10;;;2.60;;
74401;SDS011;62837;51.082;13.744;2023-02-22T01:56:44;4.80;;;2.80;;
74401;SDS011;62837;51.082;13.744;2023-02-22T01:59:19;5.80;;;3.30;;
74401;SDS011;62837;51.082;13.744;2023-02-22T02:01:51;5.70;;;3.20;;
74401;SDS011;62837;51.082;13.744;2023-02-22T02:04:23;28.80;;;15.20;;
74401;SDS011;62837;51.082;13.744;2023-02-22T02:06:56;7.60;;;4.40;;
74401;SDS011;62837;51.082;13.744;2023-02-22T02:09:31;5.90;;;3.30;;
74401;SDS011;62837;51.082;13.744;2023-02-22T02:12:05;5.90;;;3.10;;
74401;SDS011;62837;51.082;13.744;2023-02-22T02:14:39;4.90;;;2.80;;
74401;SDS011;62837;51.082;13.744;2023-02-22T02:17:11;6.70;;;4.40;;
74401;SDS011;62837;51.082;13.744;2023-02-22T02:19:46;6.20;;;3.40;;
74401;SDS011;62837;51.082;13.744;2023-02-22T02:22:27;6.70;;;3.40;;
74401;SDS011;62837;51.082;13.744;2023-02-22T02:31:49;7.10;;;3.30;;
74401;SDS011;62837;51.082;13.744;2023-02-22T02:37:15;5.70;;;2.80;;
74401;SDS011;62837;51.082;13.744;2023-02-22T02:39:56;6.30;;;2.90;;
74401;SDS011;62837;51.082;13.744;2023-02-22T02:42:32;7.00;;;4.00;;
74401;SDS011;62837;51.082;13.744;2023-02-22T02:45:07;5.30;;;3.00;;
74401;SDS011;62837;51.082;13.744;2023-02-22T02:47:43;5.60;;;2.80;;
74401;SDS011;62837;51.082;13.744;2023-02-22T02:50:22;5.90;;;3.00;;
74401;SDS011;62837;51.082;13.744;2023-02-22T02:52:56;8.80;;;3.30;;
74401;SDS011;62837;51.082;13.744;2023-02-22T02:55:30;5.90;;;4.20;;
74401;SDS011;62837;51.082;13.744;2023-02-22T02:58:04;6.90;;;4.00;;
74401;SDS011;62837;51.082;13.744;2023-02-22T03:00:36;8.00;;;4.00;;
74401;SDS011;62837;51.082;13.744;2023-02-22T03:06:31;7.00;;;3.60;;
74401;SDS011;62837;51.082;13.744;2023-02-22T03:09:17;8.10;;;4.30;;
74401;SDS011;62837;51.082;13.744;2023-02-22T03:12:05;6.40;;;3.60;;
74401;SDS011;62837;51.082;13.744;2023-02-22T03:14:45;5.30;;;3.00;;
74401;SDS011;62837;51.082;13.744;2023-02-22T03:17:25;6.50;;;3.60;;
74401;SDS011;62837;51.082;13.744;2023-02-22T03:20:06;5.60;;;3.30;;
74401;SDS011;62837;51.082;13.744;2023-02-22T03:22:46;5.00;;;3.20;;
74401;SDS011;62837;51.082;13.744;2023-02-22T03:25:23;7.50;;;4.30;;
74401;SDS011;62837;51.082;13.744;2023-02-22T03:28:02;6.40;;;3.60;;
74401;SDS011;62837;51.082;13.744;2023-02-22T03:30:38;6.50;;;4.20;;
74401;SDS011;62837;51.082;13.744;2023-02-22T03:33:14;5.30;;;3.50;;
74401;SDS011;62837;51.082;13.744;2023-02-22T03:35:52;5.40;;;3.20;;
74401;SDS011;62837;51.082;13.744;2023-02-22T03:38:28;6.80;;;3.90;;
74401;SDS011;62837;51.082;13.744;2023-02-22T03:41:01;6.90;;;3.80;;
74401;SDS011;62837;51.082;13.744;2023-02-22T03:43:37;7.60;;;4.00;;
74401;SDS011;62837;51.082;13.744;2023-02-22T03:46:13;6.90;;;3.90;;
74401;SDS011;62837;51.082;13.744;2023-02-22T03:48:49;7.30;;;4.00;;
74401;SDS011;62837;51.082;13.744;2023-02-22T03:51:24;6.60;;;3.80;;
74401;SDS011;62837;51.082;13.744;2023-02-22T03:53:58;7.90;;;4.40;;
74401;SDS011;62837;51.082;13.744;2023-02-22T03:56:36;8.20;;;3.90;;
74401;SDS011;62837;51.082;13.744;2023-02-22T03:59:14;7.60;;;4.00;;
74401;SDS011;62837;51.082;13.744;2023-02-22T04:01:45;10.00;;;5.40;;
74401;SDS011;62837;51.082;13.744;2023-02-22T04:04:18;7.70;;;4.60;;
74401;SDS011;62837;51.082;13.744;2023-02-22T04:06:51;6.60;;;4.10;;
74401;SDS011;62837;51.082;13.744;2023-02-22T04:09:23;8.70;;;4.40;;
74401;SDS011;62837;51.082;13.744;2023-02-22T04:11:55;7.90;;;4.10;;
74401;SDS011;62837;51.082;13.744;2023-02-22T04:14:27;8.20;;;4.30;;
74401;SDS011;62837;51.082;13.744;2023-02-22T04:16:58;7.10;;;4.20;;
74401;SDS011;62837;51.082;13.744;2023-02-22T04:19:28;5.10;;;3.20;;
74401;SDS011;62837;51.082;13.744;2023-02-22T04:21:59;6.30;;;3.20;;
74401;SDS011;62837;51.082;13.744;2023-02-22T04:24:33;6.30;;;3.40;;
74401;SDS011;62837;51.082;13.744;2023-02-22T04:27:04;8.00;;;4.10;;
74401;SDS011;62837;51.082;13.744;2023-02-22T04:29:37;6.60;;;3.50;;
74401;SDS011;62837;51.082;13.744;2023-02-22T04:32:08;6.20;;;4.50;;
74401;SDS011;62837;51.082;13.744;2023-02-22T04:34:39;7.90;;;4.10;;
74401;SDS011;62837;51.082;13.744;2023-02-22T04:37:10;7.10;;;4.00;;
74401;SDS011;62837;51.082;13.744;2023-02-22T04:39:41;9.10;;;4.30;;
74401;SDS011;62837;51.082;13.744;2023-02-22T04:42:11;7.30;;;4.10;;
74401;SDS011;62837;51.082;13.744;2023-02-22T04:44:42;11.50;;;4.30;;
74401;SDS011;62837;51.082;13.744;2023-02-22T04:47:13;5.80;;;3.20;;
74401;SDS011;62837;51.082;13.744;2023-02-22T04:49:44;6.80;;;4.00;;
74401;SDS011;62837;51.082;13.744;2023-02-22T04:52:15;6.30;;;3.60;;
74401;SDS011;62837;51.082;13.744;2023-02-22T04:54:46;7.40;;;4.00;;
74401;SDS011;62837;51.082;13.744;2023-02-22T04:57:18;10.30;;;3.70;;
74401;SDS011;62837;51.082;13.744;2023-02-22T04:59:50;6.70;;;3.80;;
74401;SDS011;62837;51.082;13.744;2023-02-22T05:02:21;7.50;;;3.60;;
74401;SDS011;62837;51.082;13.744;2023-02-22T05:04:52;7.50;;;4.20;;
74401;SDS011;62837;51.082;13.744;2023-02-22T05:07:23;8.70;;;4.30;;
74401;SDS011;62837;51.082;13.744;2023-02-22T05:09:54;7.40;;;3.40;;
74401;SDS011;62837;51.082;13.744;2023-02-22T05:12:27;8.00;;;3.60;;
74401;SDS011;62837;51.082;13.744;2023-02-22T05:14:57;7.60;;;4.50;;
74401;SDS011;62837;51.082;13.744;2023-02-22T05:17:28;7.60;;;4.20;;
74401;SDS011;62837;51.082;13.744;2023-02-22T05:19:58;8.20;;;4.40;;
74401;SDS011;62837;51.082;13.744;2023-02-22T05:22:29;7.80;;;4.20;;
74401;SDS011;62837;51.082;13.744;2023-02-22T05:25:00;11.40;;;4.80;;
74401;SDS011;62837;51.082;13.744;2023-02-22T05:27:31;7.00;;;4.50;;
74401;SDS011;62837;51.082;13.744;2023-02-22T05:30:02;9.30;;;4.50;;
74401;SDS011;62837;51.082;13.744;2023-02-22T05:32:36;7.50;;;4.00;;
74401;SDS011;62837;51.082;13.744;2023-02-22T05:35:07;8.80;;;4.10;;
74401;SDS011;62837;51.082;13.744;2023-02-22T05:37:37;8.50;;;4.10;;
74401;SDS011;62837;51.082;13.744;2023-02-22T05:40:09;7.80;;;4.50;;
74401;SDS011;62837;51.082;13.744;2023-02-22T05:42:42;8.40;;;4.80;;
74401;SDS011;62837;51.082;13.744;2023-02-22T05:45:16;7.50;;;4.50;;
74401;SDS011;62837;51.082;13.744;2023-02-22T05:47:49;7.70;;;4.20;;
74401;SDS011;62837;51.082;13.744;2023-02-22T05:50:20;11.40;;;5.70;;
74401;SDS011;62837;51.082;13.744;2023-02-22T05:52:52;6.60;;;4.30;;
74401;SDS011;62837;51.082;13.744;2023-02-22T05:55:23;8.90;;;4.40;;
74401;SDS011;62837;51.082;13.744;2023-02-22T05:57:54;9.70;;;4.60;;
74401;SDS011;62837;51.082;13.744;2023-02-22T06:00:26;7.50;;;4.90;;
74401;SDS011;62837;51.082;13.744;2023-02-22T06:02:58;10.50;;;4.90;;
74401;SDS011;62837;51.082;13.744;2023-02-22T06:05:30;8.40;;;4.70;;
74401;SDS011;62837;51.082;13.744;2023-02-22T06:08:02;9.10;;;5.00;;
74401;SDS011;62837;51.082;13.744;2023-02-22T06:10:34;9.80;;;5.30;;
74401;SDS011;62837;51.082;13.744;2023-02-22T06:13:05;10.40;;;4.90;;
74401;SDS011;62837;51.082;13.744;2023-02-22T06:15:36;10.30;;;5.80;;
74401;SDS011;62837;51.082;13.744;2023-02-22T06:18:07;8.50;;;4.80;;
74401;SDS011;62837;51.082;13.744;2023-02-22T06:20:37;8.50;;;4.50;;
74401;SDS011;62837;51.082;13.744;2023-02-22T06:23:08;9.00;;;5.00;;
74401;SDS011;62837;51.082;13.744;2023-02-22T06:25:39;7.90;;;4.70;;
74401;SDS011;62837;51.082;13.744;2023-02-22T06:28:09;8.30;;;4.40;;
74401;SDS011;62837;51.082;13.744;2023-02-22T06:30:41;7.60;;;4.70;;
74401;SDS011;62837;51.082;13.744;2023-02-22T06:33:12;8.00;;;4.30;;
74401;SDS011;62837;51.082;13.744;2023-02-22T06:35:42;6.50;;;4.10;;
74401;SDS011;62837;51.082;13.744;2023-02-22T06:38:20;8.80;;;5.20;;
74401;SDS011;62837;51.082;13.744;2023-02-22T06:40:52;9.30;;;4.80;;
74401;SDS011;62837;51.082;13.744;2023-02-22T06:43:23;13.00;;;4.90;;
74401;SDS011;62837;51.082;13.744;2023-02-22T06:45:54;9.90;;;5.20;;
74401;SDS011;62837;51.082;13.744;2023-02-22T06:48:24;7.40;;;4.60;;
74401;SDS011;62837;51.082;13.744;2023-02-22T06:50:55;6.60;;;4.00;;
74401;SDS011;62837;51.082;13.744;2023-02-22T06:53:26;9.60;;;5.20;;
74401;SDS011;62837;51.082;13.744;2023-02-22T06:55:57;10.50;;;5.70;;
74401;SDS011;62837;51.082;13.744;2023-02-22T06:58:28;9.70;;;5.30;;
74401;SDS011;62837;51.082;13.744;2023-02-22T07:00:59;11.10;;;6.00;;
74401;SDS011;62837;51.082;13.744;2023-02-22T07:03:30;12.60;;;6.50;;
74401;SDS011;62837;51.082;13.744;2023-02-22T07:06:01;14.30;;;7.10;;
74401;SDS011;62837;51.082;13.744;2023-02-22T07:08:34;11.70;;;6.10;;
74401;SDS011;62837;51.082;13.744;2023-02-22T07:11:05;10.20;;;6.00;;
74401;SDS011;62837;51.082;13.744;2023-02-22T07:13:36;11.10;;;6.10;;
74401;SDS011;62837;51.082;13.744;2023-02-22T07:16:07;12.10;;;6.30;;
74401;SDS011;62837;51.082;13.744;2023-02-22T07:18:38;17.70;;;7.80;;
74401;SDS011;62837;51.082;13.744;2023-02-22T07:21:08;18.40;;;9.20;;
74401;SDS011;62837;51.082;13.744;2023-02-22T07:23:39;24.70;;;12.10;;
74401;SDS011;62837;51.082;13.744;2023-02-22T07:26:10;18.10;;;6.50;;
74401;SDS011;62837;51.082;13.744;2023-02-22T07:28:41;16.10;;;6.80;;
74401;SDS011;62837;51.082;13.744;2023-02-22T07:31:11;12.20;;;7.00;;
74401;SDS011;62837;51.082;13.744;2023-02-22T07:33:44;18.20;;;7.20;;
74401;SDS011;62837;51.082;13.744;2023-02-22T07:36:15;16.00;;;5.50;;
74401;SDS011;62837;51.082;13.744;2023-02-22T07:38:46;13.80;;;5.90;;
74401;SDS011;62837;51.082;13.744;2023-02-22T07:41:17;11.30;;;5.30;;
74401;SDS011;62837;51.082;13.744;2023-02-22T07:43:49;11.20;;;5.00;;
74401;SDS011;62837;51.082;13.744;2023-02-22T07:46:20;13.80;;;6.10;;
74401;SDS011;62837;51.082;13.744;2023-02-22T07:48:51;12.40;;;5.70;;
74401;SDS011;62837;51.082;13.744;2023-02-22T07:51:21;11.80;;;6.00;;
74401;SDS011;62837;51.082;13.744;2023-02-22T07:53:54;10.50;;;5.80;;
74401;SDS011;62837;51.082;13.744;2023-02-22T07:56:24;10.50;;;5.90;;
74401;SDS011;62837;51.082;13.744;2023-02-22T07:58:55;10.40;;;5.30;;
74401;SDS011;62837;51.082;13.744;2023-02-22T08:01:27;10.90;;;5.60;;
74401;SDS011;62837;51.082;13.744;2023-02-22T08:03:58;11.00;;;6.00;;
74401;SDS011;62837;51.082;13.744;2023-02-22T08:06:29;11.60;;;6.00;;
74401;SDS011;62837;51.082;13.744;2023-02-22T08:09:00;13.20;;;6.00;;
74401;SDS011;62837;51.082;13.744;2023-02-22T08:11:30;11.10;;;5.60;;
74401;SDS011;62837;51.082;13.744;2023-02-22T08:14:01;14.50;;;6.40;;
74401;SDS011;62837;51.082;13.744;2023-02-22T08:16:32;10.30;;;5.60;;
74401;SDS011;62837;51.082;13.744;2023-02-22T08:19:03;11.70;;;5.90;;
74401;SDS011;62837;51.082;13.744;2023-02-22T08:21:33;14.40;;;6.50;;
74401;SDS011;62837;51.082;13.744;2023-02-22T08:24:05;9.10;;;5.10;;
74401;SDS011;62837;51.082;13.744;2023-02-22T08:26:36;11.80;;;5.70;;
74401;SDS011;62837;51.082;13.744;2023-02-22T08:29:11;8.60;;;5.40;;
74401;SDS011;62837;51.082;13.744;2023-02-22T08:31:42;14.10;;;6.10;;
74401;SDS011;62837;51.082;13.744;2023-02-22T08:34:21;12.40;;;5.90;;
74401;SDS011;62837;51.082;13.744;2023-02-22T08:36:51;14.30;;;6.20;;
74401;SDS011;62837;51.082;13.744;2023-02-22T08:39:22;12.40;;;7.10;;
74401;SDS011;62837;51.082;13.744;2023-02-22T08:41:53;12.40;;;6.50;;
74401;SDS011;62837;51.082;13.744;2023-02-22T08:44:24;11.40;;;6.30;;
74401;SDS011;62837;51.082;13.744;2023-02-22T08:46:54;11.50;;;5.70;;
74401;SDS011;62837;51.082;13.744;2023-02-22T08:49:25;12.20;;;7.00;;
74401;SDS011;62837;51.082;13.744;2023-02-22T08:51:56;13.60;;;7.20;;
74401;SDS011;62837;51.082;13.744;2023-02-22T08:54:27;12.60;;;6.60;;
74401;SDS011;62837;51.082;13.744;2023-02-22T08:56:57;12.40;;;6.30;;
74401;SDS011;62837;51.082;13.744;2023-02-22T08:59:28;14.10;;;6.30;;
74401;SDS011;62837;51.082;13.744;2023-02-22T09:01:59;12.70;;;7.30;;
74401;SDS011;62837;51.082;13.744;2023-02-22T09:04:30;10.80;;;6.30;;
74401;SDS011;62837;51.082;13.744;2023-02-22T09:07:01;10.80;;;5.70;;
74401;SDS011;62837;51.082;13.744;2023-02-22T09:09:32;13.10;;;7.10;;
74401;SDS011;62837;51.082;13.744;2023-02-22T09:12:04;14.60;;;7.40;;
74401;SDS011;62837;51.082;13.744;2023-02-22T09:14:35;11.40;;;6.20;;
74401;SDS011;62837;51.082;13.744;2023-02-22T09:17:06;11.80;;;6.20;;
74401;SDS011;62837;51.082;13.744;2023-02-22T09:19:37;9.80;;;5.30;;
74401;SDS011;62837;51.082;13.744;2023-02-22T09:22:07;12.30;;;5.90;;
74401;SDS011;62837;51.082;13.744;2023-02-22T09:24:38;11.10;;;7.10;;
74401;SDS011;62837;51.082;13.744;2023-02-22T09:27:10;9.10;;;4.30;;
74401;SDS011;62837;51.082;13.744;2023-02-22T09:29:41;9.80;;;5.80;;
74401;SDS011;62837;51.082;13.744;2023-02-22T09:32:15;10.70;;;5.30;;
74401;SDS011;62837;51.082;13.744;2023-02-22T09:34:46;15.80;;;6.20;;
74401;SDS011;62837;51.082;13.744;2023-02-22T09:39:48;14.40;;;6.50;;
74401;SDS011;62837;51.082;13.744;2023-02-22T09:42:22;14.50;;;6.60;;
74401;SDS011;62837;51.082;13.744;2023-02-22T09:45:01;12.70;;;6.80;;
74401;SDS011;62837;51.082;13.744;2023-02-22T09:47:40;12.80;;;6.60;;
74401;SDS011;62837;51.082;13.744;2023-02-22T09:50:16;14.00;;;6.40;;
74401;SDS011;62837;51.082;13.744;2023-02-22T09:52:54;12.70;;;6.90;;
74401;SDS011;62837;51.082;13.744;2023-02-22T09:58:03;11.80;;;6.50;;
74401;SDS011;62837;51.082;13.744;2023-02-22T10:00:41;13.10;;;5.50;;
74401;SDS011;62837;51.082;13.744;2023-02-22T10:03:19;10.00;;;5.60;;
74401;SDS011;62837;51.082;13.744;2023-02-22T10:06:02;10.60;;;5.30;;
74401;SDS011;62837;51.082;13.744;2023-02-22T10:08:38;11.80;;;5.80;;
74401;SDS011;62837;51.082;13.744;2023-02-22T10:11:11;10.40;;;5.70;;
74401;SDS011;62837;51.082;13.744;2023-02-22T10:13:54;10.50;;;5.70;;
74401;SDS011;62837;51.082;13.744;2023-02-22T10:16:32;14.30;;;5.50;;
74401;SDS011;62837;51.082;13.744;2023-02-22T10:19:16;10.80;;;5.60;;
74401;SDS011;62837;51.082;13.744;2023-02-22T10:24:59;8.30;;;4.90;;
74401;SDS011;62837;51.082;13.744;2023-02-22T10:27:36;8.80;;;4.70;;
74401;SDS011;62837;51.082;13.744;2023-02-22T10:30:16;7.30;;;4.30;;
74401;SDS011;62837;51.082;13.744;2023-02-22T10:32:56;9.10;;;5.20;;
74401;SDS011;62837;51.082;13.744;2023-02-22T10:35:33;11.50;;;5.50;;
74401;SDS011;62837;51.082;13.744;2023-02-22T10:38:11;9.10;;;5.50;;
74401;SDS011;62837;51.082;13.744;2023-02-22T10:40:47;10.80;;;5.80;;
74401;SDS011;62837;51.082;13.744;2023-02-22T10:43:22;11.70;;;6.50;;
74401;SDS011;62837;51.082;13.744;2023-02-22T10:45:54;9.80;;;5.20;;
74401;SDS011;62837;51.082;13.744;2023-02-22T10:48:28;11.10;;;5.60;;
74401;SDS011;62837;51.082;13.744;2023-02-22T10:51:05;11.90;;;6.30;;
74401;SDS011;62837;51.082;13.744;2023-02-22T10:53:37;11.70;;;6.00;;
74401;SDS011;62837;51.082;13.744;2023-02-22T10:56:17;11.40;;;5.00;;
74401;SDS011;62837;51.082;13.744;2023-02-22T10:58:50;8.50;;;4.90;;
74401;SDS011;62837;51.082;13.744;2023-02-22T11:01:25;9.80;;;5.30;;
74401;SDS011;62837;51.082;13.744;2023-02-22T11:04:09;10.80;;;5.90;;
74401;SDS011;62837;51.082;13.744;2023-02-22T11:06:43;7.60;;;4.30;;
74401;SDS011;62837;51.082;13.744;2023-02-22T11:09:16;10.10;;;5.50;;
74401;SDS011;62837;51.082;13.744;2023-02-22T11:11:50;12.30;;;6.80;;
74401;SDS011;62837;51.082;13.744;2023-02-22T11:14:37;7.10;;;4.60;;
74401;SDS011;62837;51.082;13.744;2023-02-22T11:17:09;7.50;;;4.60;;
74401;SDS011;62837;51.082;13.744;2023-02-22T11:19:48;9.40;;;5.00;;
74401;SDS011;62837;51.082;13.744;2023-02-22T11:22:21;12.80;;;3.40;;
74401;SDS011;62837;51.082;13.744;2023-02-22T11:24:55;7.50;;;4.10;;
74401;SDS011;62837;51.082;13.744;2023-02-22T11:27:33;8.00;;;3.80;;
74401;SDS011;62837;51.082;13.744;2023-02-22T11:30:09;7.50;;;4.10;;
74401;SDS011;62837;51.082;13.744;2023-02-22T11:32:49;7.30;;;3.70;;
74401;SDS011;62837;51.082;13.744;2023-02-22T11:35:39;6.00;;;3.80;;
74401;SDS011;62837;51.082;13.744;2023-02-22T11:38:20;5.40;;;3.80;;
74401;SDS011;62837;51.082;13.744;2023-02-22T11:43:34;4.70;;;3.50;;
74401;SDS011;62837;51.082;13.744;2023-02-22T11:46:05;7.40;;;3.80;;
74401;SDS011;62837;51.082;13.744;2023-02-22T11:48:42;6.50;;;3.40;;
74401;SDS011;62837;51.082;13.744;2023-02-22T11:51:37;5.10;;;3.00;;
74401;SDS011;62837;51.082;13.744;2023-02-22T11:54:17;3.40;;;2.60;;
74401;SDS011;62837;51.082;13.744;2023-02-22T11:57:00;4.40;;;2.70;;
74401;SDS011;62837;51.082;13.744;2023-02-22T11:59:45;5.30;;;3.20;;
74401;SDS011;62837;51.082;13.744;2023-02-22T12:02:30;5.00;;;3.20;;
74401;SDS011;62837;51.082;13.744;2023-02-22T12:05:33;4.40;;;2.30;;
74401;SDS011;62837;51.082;13.744;2023-02-22T12:11:02;3.90;;;2.60;;
74401;SDS011;62837;51.082;13.744;2023-02-22T12:14:00;3.70;;;2.40;;
74401;SDS011;62837;51.082;13.744;2023-02-22T12:16:44;3.50;;;2.30;;
74401;SDS011;62837;51.082;13.744;2023-02-22T12:19:32;4.00;;;3.30;;
74401;SDS011;62837;51.082;13.744;2023-02-22T12:22:08;4.30;;;2.70;;
74401;SDS011;62837;51.082;13.744;2023-02-22T12:24:44;5.40;;;2.90;;
74401;SDS011;62837;51.082;13.744;2023-02-22T12:27:36;5.10;;;3.80;;
74401;SDS011;62837;51.082;13.744;2023-02-22T12:30:14;4.20;;;2.70;;
74401;SDS011;62837;51.082;13.744;2023-02-22T12:32:51;3.90;;;2.60;;
74401;SDS011;62837;51.082;13.744;2023-02-22T12:35:26;3.80;;;2.60;;
74401;SDS011;62837;51.082;13.744;2023-02-22T12:38:02;3.80;;;2.40;;
74401;SDS011;62837;51.082;13.744;2023-02-22T12:40:40;5.00;;;2.70;;
74401;SDS011;62837;51.082;13.744;2023-02-22T12:43:17;4.70;;;2.40;;
74401;SDS011;62837;51.082;13.744;2023-02-22T12:45:53;3.80;;;2.60;;
74401;SDS011;62837;51.082;13.744;2023-02-22T12:48:32;5.90;;;2.90;;
74401;SDS011;62837;51.082;13.744;2023-02-22T12:51:16;3.30;;;2.20;;
74401;SDS011;62837;51.082;13.744;2023-02-22T12:53:56;4.00;;;2.30;;
74401;SDS011;62837;51.082;13.744;2023-02-22T12:56:33;4.40;;;3.10;;
74401;SDS011;62837;51.082;13.744;2023-02-22T12:59:10;3.90;;;2.60;;
74401;SDS011;62837;51.082;13.744;2023-02-22T13:01:48;4.70;;;2.30;;
74401;SDS011;62837;51.082;13.744;2023-02-22T13:04:21;3.00;;;1.90;;
74401;SDS011;62837;51.082;13.744;2023-02-22T13:06:58;4.10;;;2.10;;
74401;SDS011;62837;51.082;13.744;2023-02-22T13:09:41;3.60;;;2.40;;
74401;SDS011;62837;51.082;13.744;2023-02-22T13:12:25;3.50;;;2.30;;
74401;SDS011;62837;51.082;13.744;2023-02-22T13:15:06;4.50;;;2.90;;
74401;SDS011;62837;51.082;13.744;2023-02-22T13:17:47;2.60;;;1.90;;
74401;SDS011;62837;51.082;13.744;2023-02-22T13:20:29;3.10;;;1.90;;
74401;SDS011;62837;51.082;13.744;2023-02-22T13:23:05;3.70;;;2.00;;
74401;SDS011;62837;51.082;13.744;2023-02-22T13:25:41;4.10;;;2.10;;
74401;SDS011;62837;51.082;13.744;2023-02-22T13:28:23;4.80;;;1.80;;
74401;SDS011;62837;51.082;13.744;2023-02-22T13:31:04;2.80;;;1.90;;
74401;SDS011;62837;51.082;13.744;2023-02-22T13:33:55;2.80;;;1.60;;
74401;SDS011;62837;51.082;13.744;2023-02-22T13:36:44;3.70;;;1.70;;
74401;SDS011;62837;51.082;13.744;2023-02-22T13:39:48;3.10;;;1.80;;
74401;SDS011;62837;51.082;13.744;2023-02-22T13:48:53;2.80;;;1.40;;
74401;SDS011;62837;51.082;13.744;2023-02-22T13:51:44;2.70;;;2.00;;
74401;SDS011;62837;51.082;13.744;2023-02-22T13:54:21;3.10;;;1.50;;
74401;SDS011;62837;51.082;13.744;2023-02-22T13:56:58;3.00;;;1.70;;
74401;SDS011;62837;51.082;13.744;2023-02-22T13:59:30;2.60;;;1.60;;
74401;SDS011;62837;51.082;13.744;2023-02-22T14:02:03;2.80;;;1.50;;
74401;SDS011;62837;51.082;13.744;2023-02-22T14:04:36;2.90;;;1.70;;
74401;SDS011;62837;51.082;13.744;2023-02-22T14:13:26;2.50;;;1.30;;
74401;SDS011;62837;51.082;13.744;2023-02-22T14:16:17;2.40;;;1.70;;
74401;SDS011;62837;51.082;13.744;2023-02-22T14:18:59;2.30;;;1.50;;
74401;SDS011;62837;51.082;13.744;2023-02-22T14:21:33;2.30;;;1.60;;
74401;SDS011;62837;51.082;13.744;2023-02-22T14:24:08;2.90;;;2.00;;
74401;SDS011;62837;51.082;13.744;2023-02-22T14:26:53;3.30;;;1.70;;
74401;SDS011;62837;51.082;13.744;2023-02-22T14:29:27;3.00;;;1.70;;
74401;SDS011;62837;51.082;13.744;2023-02-22T14:32:00;3.60;;;1.50;;
74401;SDS011;62837;51.082;13.744;2023-02-22T14:34:41;2.10;;;1.30;;
74401;SDS011;62837;51.082;13.744;2023-02-22T14:37:17;3.90;;;2.20;;
74401;SDS011;62837;51.082;13.744;2023-02-22T14:39:52;3.20;;;2.00;;
74401;SDS011;62837;51.082;13.744;2023-02-22T14:42:40;3.50;;;1.50;;
74401;SDS011;62837;51.082;13.744;2023-02-22T14:45:19;3.20;;;2.40;;
74401;SDS011;62837;51.082;13.744;2023-02-22T14:47:57;2.60;;;2.00;;
74401;SDS011;62837;51.082;13.744;2023-02-22T14:50:42;3.80;;;2.10;;
74401;SDS011;62837;51.082;13.744;2023-02-22T14:53:19;4.30;;;2.30;;
74401;SDS011;62837;51.082;13.744;2023-02-22T14:55:56;4.50;;;2.00;;
74401;SDS011;62837;51.082;13.744;2023-02-22T14:58:32;6.20;;;2.30;;
74401;SDS011;62837;51.082;13.744;2023-02-22T15:01:25;3.00;;;2.00;;
74401;SDS011;62837;51.082;13.744;2023-02-22T15:04:19;5.70;;;2.30;;
74401;SDS011;62837;51.082;13.744;2023-02-22T15:06:52;5.00;;;2.70;;
74401;SDS011;62837;51.082;13.744;2023-02-22T15:12:11;4.80;;;2.90;;
74401;SDS011;62837;51.082;13.744;2023-02-22T15:14:49;7.00;;;3.60;;
74401;SDS011;62837;51.082;13.744;2023-02-22T15:17:39;7.70;;;3.50;;
74401;SDS011;62837;51.082;13.744;2023-02-22T15:20:14;8.40;;;4.10;;
74401;SDS011;62837;51.082;13.744;2023-02-22T15:22:47;7.50;;;3.20;;
74401;SDS011;62837;51.082;13.744;2023-02-22T15:25:23;7.80;;;3.80;;
74401;SDS011;62837;51.082;13.744;2023-02-22T15:28:00;8.40;;;4.60;;
74401;SDS011;62837;51.082;13.744;2023-02-22T15:30:36;9.30;;;4.70;;
74401;SDS011;62837;51.082;13.744;2023-02-22T15:33:11;10.10;;;5.10;;
74401;SDS011;62837;51.082;13.744;2023-02-22T15:35:44;7.60;;;4.10;;
74401;SDS011;62837;51.082;13.744;2023-02-22T15:38:25;7.40;;;4.00;;
74401;SDS011;62837;51.082;13.744;2023-02-22T15:41:01;10.10;;;4.50;;
74401;SDS011;62837;51.082;13.744;2023-02-22T15:43:35;7.70;;;4.40;;
74401;SDS011;62837;51.082;13.744;2023-02-22T15:46:07;7.90;;;3.80;;
74401;SDS011;62837;51.082;13.744;2023-02-22T15:48:39;8.30;;;3.70;;
74401;SDS011;62837;51.082;13.744;2023-02-22T15:51:10;6.80;;;4.10;;
74401;SDS011;62837;51.082;13.744;2023-02-22T15:53:44;7.20;;;3.80;;
74401;SDS011;62837;51.082;13.744;2023-02-22T15:56:17;8.80;;;4.20;;
74401;SDS011;62837;51.082;13.744;2023-02-22T15:58:59;8.20;;;3.90;;